createdAt,value
2022-08-20T00:00:06.566Z,63.88
2022-08-20T00:02:39.561Z,64.94
2022-08-20T00:05:06.776Z,64.34
2022-08-20T00:07:34.849Z,64.05
2022-08-20T00:10:01.663Z,64.06
2022-08-20T00:12:30.525Z,63.49
2022-08-20T00:14:57.339Z,63.30
2022-08-20T00:17:24.085Z,63.95
2022-08-20T00:19:50.719Z,63.48
2022-08-20T00:22:17.522Z,64.62
2022-08-20T00:24:45.471Z,64.44
2022-08-20T00:27:12.376Z,64.58
2022-08-20T00:29:39.285Z,64.78
2022-08-20T00:32:06.173Z,64.32
2022-08-20T00:34:32.865Z,64.12
2022-08-20T00:36:59.520Z,65.02
2022-08-20T00:39:26.212Z,65.00
2022-08-20T00:41:54.450Z,65.15
2022-08-20T00:44:22.701Z,66.00
2022-08-20T00:46:50.460Z,66.15
2022-08-20T00:49:19.294Z,66.06
2022-08-20T00:51:49.921Z,66.55
2022-08-20T00:54:24.765Z,67.05
2022-08-20T00:56:57.739Z,66.63
2022-08-20T00:59:28.166Z,67.18
2022-08-20T01:01:56.458Z,67.79
2022-08-20T01:04:25.333Z,67.64
2022-08-20T01:06:52.488Z,67.50
2022-08-20T01:09:50.067Z,67.20
2022-08-20T01:12:09.867Z,67.45
2022-08-20T01:14:36.778Z,67.90
2022-08-20T01:17:08.402Z,67.42
2022-08-20T01:19:40.858Z,67.45
2022-08-20T01:22:09.185Z,67.86
2022-08-20T01:24:40.187Z,67.82
2022-08-20T01:27:08.344Z,67.84
2022-08-20T01:29:39.532Z,67.33
2022-08-20T01:32:08.101Z,67.54
2022-08-20T01:34:34.714Z,67.51
2022-08-20T01:37:01.597Z,67.53
2022-08-20T01:39:30.577Z,67.39
2022-08-20T01:42:06.872Z,67.63
2022-08-20T01:44:38.136Z,67.56
2022-08-20T01:47:12.769Z,67.64
2022-08-20T01:49:46.555Z,67.65
2022-08-20T01:52:22.477Z,68.06
2022-08-20T01:54:49.381Z,67.54
2022-08-20T01:57:21.186Z,67.65
2022-08-20T01:59:50.463Z,67.57
2022-08-20T02:02:18.596Z,68.04
2022-08-20T02:04:45.426Z,67.61
2022-08-20T02:07:15.621Z,68.14
2022-08-20T02:09:43.599Z,68.09
2022-08-20T02:12:12.241Z,67.82
2022-08-20T02:14:41.273Z,68.35
2022-08-20T02:17:10.923Z,68.11
2022-08-20T02:19:40.318Z,68.32
2022-08-20T02:22:14.279Z,68.01
2022-08-20T02:24:40.859Z,68.26
2022-08-20T02:27:07.491Z,67.60
2022-08-20T02:29:34.124Z,67.76
2022-08-20T02:32:23.741Z,68.42
2022-08-20T02:34:49.160Z,68.07
2022-08-20T02:37:18.327Z,67.47
2022-08-20T02:39:45.224Z,67.47
2022-08-20T02:42:12.619Z,67.99
2022-08-20T02:44:39.408Z,68.04
2022-08-20T02:47:07.072Z,67.39
2022-08-20T02:49:33.763Z,68.08
2022-08-20T02:52:01.860Z,67.82
2022-08-20T02:54:28.683Z,67.68
2022-08-20T02:56:55.356Z,68.42
2022-08-20T02:59:22.027Z,68.03
2022-08-20T03:02:00.033Z,67.99
2022-08-20T03:04:28.162Z,67.79
2022-08-20T03:06:57.823Z,67.41
2022-08-20T03:09:28.220Z,67.52
2022-08-20T03:11:54.951Z,67.90
2022-08-20T03:14:21.681Z,68.12
2022-08-20T03:16:48.473Z,67.87
2022-08-20T03:19:16.469Z,67.39
2022-08-20T03:21:43.080Z,67.45
2022-08-20T03:24:10.255Z,67.70
2022-08-20T03:26:38.263Z,68.23
2022-08-20T03:29:04.953Z,67.95
2022-08-20T03:31:31.654Z,67.68
2022-08-20T03:33:58.349Z,67.97
2022-08-20T03:36:27.865Z,68.05
2022-08-20T03:38:55.793Z,67.32
2022-08-20T03:41:22.663Z,67.80
2022-08-20T03:43:51.742Z,67.73
2022-08-20T03:46:22.055Z,66.90
2022-08-20T03:48:49.944Z,67.38
2022-08-20T03:51:19.047Z,67.16
2022-08-20T03:53:45.640Z,67.73
2022-08-20T03:56:12.345Z,67.36
2022-08-20T03:58:39.216Z,66.80
2022-08-20T04:01:07.699Z,67.09
2022-08-20T04:03:55.802Z,67.32
2022-08-20T04:06:22.354Z,66.70
2022-08-20T04:08:51.122Z,67.61
2022-08-20T04:11:17.755Z,67.58
2022-08-20T04:13:44.312Z,67.97
2022-08-20T04:16:14.432Z,67.87
2022-08-20T04:18:42.770Z,67.60
2022-08-20T04:21:29.614Z,67.49
2022-08-20T04:24:00.250Z,67.36
2022-08-20T04:26:26.919Z,67.92
2022-08-20T04:28:53.629Z,67.25
2022-08-20T04:31:25.025Z,67.79
2022-08-20T04:33:52.852Z,67.33
2022-08-20T04:36:19.465Z,67.79
2022-08-20T04:38:50.554Z,68.03
2022-08-20T04:41:22.978Z,67.68
2022-08-20T04:43:54.796Z,67.79
2022-08-20T04:46:24.145Z,67.45
2022-08-20T04:48:51.059Z,67.73
2022-08-20T04:51:18.678Z,67.94
2022-08-20T04:53:51.768Z,67.70
2022-08-20T04:56:19.459Z,67.80
2022-08-20T04:58:46.059Z,67.52
2022-08-20T05:01:13.111Z,67.31
2022-08-20T05:03:41.379Z,67.07
2022-08-20T05:06:10.825Z,66.75
2022-08-20T05:08:39.026Z,67.51
2022-08-20T05:11:33.773Z,67.64
2022-08-20T05:13:56.107Z,67.85
2022-08-20T05:16:22.872Z,67.88
2022-08-20T05:18:51.690Z,67.57
2022-08-20T05:21:19.809Z,67.34
2022-08-20T05:23:46.504Z,67.35
2022-08-20T05:26:13.492Z,67.68
2022-08-20T05:28:54.040Z,67.88
2022-08-20T05:31:31.376Z,67.36
2022-08-20T05:34:01.065Z,66.78
2022-08-20T05:36:28.209Z,66.75
2022-08-20T05:38:55.005Z,66.09
2022-08-20T05:41:29.373Z,66.23
2022-08-20T05:43:56.719Z,66.14
2022-08-20T05:46:23.369Z,65.64
2022-08-20T05:48:50.040Z,65.27
2022-08-20T05:51:18.102Z,65.08
2022-08-20T05:53:44.775Z,64.78
2022-08-20T05:56:11.660Z,65.37
2022-08-20T05:58:38.292Z,65.31
2022-08-20T06:01:05.481Z,65.73
2022-08-20T06:03:32.405Z,66.36
2022-08-20T06:06:00.969Z,66.57
2022-08-20T06:08:29.176Z,66.55
2022-08-20T06:10:55.852Z,67.20
2022-08-20T06:13:22.678Z,66.33
2022-08-20T06:15:49.619Z,66.51
2022-08-20T06:18:27.934Z,65.96
2022-08-20T06:20:56.201Z,65.93
2022-08-20T06:23:23.033Z,65.87
2022-08-20T06:25:52.691Z,66.06
2022-08-20T06:28:19.793Z,65.51
2022-08-20T06:30:47.779Z,65.52
2022-08-20T06:33:14.502Z,65.95
2022-08-20T06:35:41.477Z,66.33
2022-08-20T06:38:10.380Z,65.45
2022-08-20T06:40:37.057Z,65.44
2022-08-20T06:43:05.163Z,65.70
2022-08-20T06:45:32.875Z,66.11
2022-08-20T06:48:01.660Z,65.85
2022-08-20T06:50:31.095Z,65.58
2022-08-20T06:52:58.339Z,65.85
2022-08-20T06:55:27.373Z,65.61
2022-08-20T06:57:57.645Z,65.27
2022-08-20T07:00:28.772Z,66.04
2022-08-20T07:02:55.784Z,66.44
2022-08-20T07:05:22.542Z,67.45
2022-08-20T07:07:49.871Z,66.40
2022-08-20T07:10:17.948Z,66.35
2022-08-20T07:12:45.149Z,65.92
2022-08-20T07:15:15.631Z,65.84
2022-08-20T07:17:49.149Z,65.21
2022-08-20T07:20:16.415Z,63.81
2022-08-20T07:22:43.572Z,63.92
2022-08-20T07:25:12.571Z,64.05
2022-08-20T07:27:39.939Z,64.91
2022-08-20T07:30:12.667Z,64.73
2022-08-20T07:32:45.393Z,64.77
2022-08-20T07:35:15.569Z,64.83
2022-08-20T07:37:44.075Z,64.42
2022-08-20T07:40:15.527Z,62.92
2022-08-20T07:42:42.181Z,62.40
2022-08-20T07:45:10.902Z,61.91
2022-08-20T07:47:42.656Z,61.81
2022-08-20T07:50:13.499Z,61.65
2022-08-20T07:52:40.535Z,61.11
2022-08-20T07:55:10.670Z,61.63
2022-08-20T07:57:38.377Z,59.88
2022-08-20T08:00:08.509Z,57.84
2022-08-20T08:02:36.300Z,55.49
2022-08-20T08:05:03.811Z,55.17
2022-08-20T08:07:33.245Z,54.58
2022-08-20T08:10:01.651Z,54.71
2022-08-20T08:12:34.732Z,54.79
2022-08-20T08:15:04.827Z,55.17
2022-08-20T08:17:31.552Z,54.77
2022-08-20T08:19:58.796Z,55.46
2022-08-20T08:22:30.611Z,55.09
2022-08-20T08:24:59.190Z,54.95
2022-08-20T08:27:28.948Z,54.66
2022-08-20T08:29:56.331Z,55.06
2022-08-20T08:32:23.129Z,55.18
2022-08-20T08:34:49.792Z,54.70
2022-08-20T08:37:16.783Z,55.02
2022-08-20T08:39:43.835Z,56.06
2022-08-20T08:42:24.329Z,56.14
2022-08-20T08:44:51.428Z,56.98
2022-08-20T08:47:25.300Z,56.89
2022-08-20T08:49:52.105Z,57.80
2022-08-20T08:52:22.999Z,57.79
2022-08-20T08:54:54.988Z,58.39
2022-08-20T08:57:23.499Z,59.38
2022-08-20T09:00:03.457Z,59.87
2022-08-20T09:02:34.496Z,59.74
2022-08-20T09:05:04.763Z,59.82
2022-08-20T09:07:34.500Z,59.46
2022-08-20T09:10:02.151Z,58.69
2022-08-20T09:12:30.520Z,58.04
2022-08-20T09:14:57.485Z,57.81
2022-08-20T09:17:24.561Z,57.90
2022-08-20T09:19:51.671Z,57.44
2022-08-20T09:22:20.926Z,57.81
2022-08-20T09:24:48.094Z,58.25
2022-08-20T09:27:14.822Z,58.32
2022-08-20T09:29:47.762Z,58.51
2022-08-20T09:32:20.899Z,58.70
2022-08-20T09:34:50.552Z,58.13
2022-08-20T09:37:19.643Z,57.18
2022-08-20T09:39:47.779Z,55.62
2022-08-20T09:42:17.400Z,54.59
2022-08-20T09:44:46.189Z,53.84
2022-08-20T09:47:14.593Z,53.58
2022-08-20T09:49:42.594Z,53.40
2022-08-20T09:52:11.722Z,52.75
2022-08-20T09:54:46.185Z,52.68
2022-08-20T09:57:15.519Z,52.75
2022-08-20T09:59:45.865Z,52.75
2022-08-20T10:02:28.379Z,51.83
2022-08-20T10:04:55.445Z,50.72
2022-08-20T10:07:24.504Z,50.13
2022-08-20T10:09:51.279Z,49.07
2022-08-20T10:22:20.247Z,46.56
2022-08-20T10:24:47.271Z,46.48
2022-08-20T10:27:13.819Z,46.54
2022-08-20T10:29:43.976Z,46.87
2022-08-20T10:32:16.106Z,47.44
2022-08-20T10:34:44.882Z,47.77
2022-08-20T10:37:14.995Z,47.66
2022-08-20T10:39:43.430Z,47.75
2022-08-20T10:42:10.253Z,48.42
2022-08-20T10:44:37.047Z,47.20
2022-08-20T10:47:15.289Z,46.88
2022-08-20T10:49:42.070Z,47.12
2022-08-20T10:52:09.083Z,46.09
2022-08-20T10:54:35.762Z,46.22
2022-08-20T10:57:04.427Z,46.47
2022-08-20T10:59:31.324Z,46.13
2022-08-20T11:01:58.167Z,45.47
2022-08-20T11:04:26.075Z,44.83
2022-08-20T11:06:56.431Z,45.27
2022-08-20T11:09:23.227Z,44.73
2022-08-20T11:11:49.848Z,44.79
2022-08-20T11:14:19.695Z,45.21
2022-08-20T11:16:46.449Z,44.89
2022-08-20T11:19:13.317Z,44.82
2022-08-20T11:21:40.049Z,44.35
2022-08-20T11:24:07.174Z,44.41
2022-08-20T11:26:34.183Z,44.27
2022-08-20T11:29:01.045Z,44.25
2022-08-20T11:31:29.170Z,45.11
2022-08-20T11:34:01.042Z,44.73
2022-08-20T11:36:27.831Z,45.20
2022-08-20T11:38:54.818Z,46.00
2022-08-20T11:41:24.024Z,46.07
2022-08-20T11:44:10.380Z,46.52
2022-08-20T11:46:39.806Z,46.41
2022-08-20T11:49:06.622Z,47.23
2022-08-20T11:51:34.705Z,46.41
2022-08-20T11:54:16.095Z,44.88
2022-08-20T11:56:42.900Z,44.05
2022-08-20T11:59:13.500Z,45.59
2022-08-20T12:02:01.972Z,45.23
2022-08-20T12:04:29.371Z,46.62
2022-08-20T12:07:08.424Z,47.25
2022-08-20T12:09:35.187Z,45.30
2022-08-20T12:12:01.877Z,44.50
2022-08-20T12:14:28.743Z,44.55
2022-08-20T12:16:57.329Z,44.06
2022-08-20T12:19:24.148Z,44.89
2022-08-20T12:21:50.992Z,44.57
2022-08-20T12:24:17.608Z,44.67
2022-08-20T12:26:44.252Z,43.71
2022-08-20T12:29:10.880Z,43.03
2022-08-20T12:31:37.501Z,41.50
2022-08-20T12:34:05.532Z,41.13
2022-08-20T12:36:32.268Z,40.22
2022-08-20T12:38:58.893Z,40.77
2022-08-20T12:41:25.657Z,41.21
2022-08-20T12:43:52.351Z,38.98
2022-08-20T12:46:18.988Z,39.31
2022-08-20T12:48:45.618Z,39.93
2022-08-20T12:51:13.736Z,39.52
2022-08-20T12:53:43.492Z,40.32
2022-08-20T12:56:10.330Z,41.24
2022-08-20T12:58:44.456Z,40.24
2022-08-20T13:01:11.183Z,41.73
2022-08-20T13:03:43.052Z,42.63
2022-08-20T13:06:13.285Z,41.46
2022-08-20T13:08:40.026Z,42.11
2022-08-20T13:11:06.668Z,41.99
2022-08-20T13:13:33.410Z,41.97
2022-08-20T13:16:00.051Z,41.46
2022-08-20T13:18:26.821Z,42.03
2022-08-20T13:20:53.536Z,41.54
2022-08-20T13:23:21.611Z,41.71
2022-08-20T13:25:48.320Z,42.06
2022-08-20T13:28:15.001Z,41.76
2022-08-20T13:30:41.683Z,41.86
2022-08-20T13:33:08.378Z,41.42
2022-08-20T13:35:35.017Z,41.14
2022-08-20T13:38:01.761Z,40.68
2022-08-20T13:40:29.940Z,40.20
2022-08-20T13:42:56.779Z,39.20
2022-08-20T13:45:23.627Z,39.51
2022-08-20T13:47:53.846Z,39.31
2022-08-20T13:50:22.540Z,38.59
2022-08-20T13:52:49.307Z,38.32
2022-08-20T13:55:18.791Z,37.68
2022-08-20T13:57:47.278Z,36.59
2022-08-20T14:00:16.997Z,35.49
2022-08-20T14:02:43.831Z,34.31
2022-08-20T14:05:11.189Z,33.64
2022-08-20T14:07:40.901Z,33.88
2022-08-20T14:10:10.614Z,35.86
2022-08-20T14:12:37.728Z,34.47
2022-08-20T14:15:07.545Z,34.92
2022-08-20T14:17:36.986Z,35.12
2022-08-20T14:20:07.583Z,34.95
2022-08-20T14:22:36.607Z,35.52
2022-08-20T14:25:05.100Z,35.42
2022-08-20T14:27:33.351Z,35.58
2022-08-20T14:30:01.002Z,35.00
2022-08-20T14:32:29.135Z,34.53
2022-08-20T14:34:56.269Z,33.91
2022-08-20T14:37:26.032Z,32.72
2022-08-20T14:39:54.797Z,33.56
2022-08-20T14:42:21.615Z,33.02
2022-08-20T14:44:48.774Z,32.48
2022-08-20T14:47:18.382Z,32.21
2022-08-20T14:49:47.785Z,32.58
2022-08-20T14:52:17.400Z,32.39
2022-08-20T14:54:44.842Z,31.66
2022-08-20T14:57:13.136Z,31.68
2022-08-20T14:59:40.698Z,31.67
2022-08-20T15:02:10.205Z,32.26
2022-08-20T15:04:37.694Z,31.93
2022-08-20T15:07:11.101Z,31.89
2022-08-20T15:09:40.366Z,32.44
2022-08-20T15:12:07.483Z,32.86
2022-08-20T15:14:34.566Z,32.83
2022-08-20T15:17:06.126Z,33.13
2022-08-20T15:19:33.070Z,33.02
2022-08-20T15:21:59.866Z,33.36
2022-08-20T15:24:30.806Z,33.99
2022-08-20T15:26:57.497Z,34.09
2022-08-20T15:29:24.311Z,34.15
2022-08-20T15:31:51.303Z,35.03
2022-08-20T15:34:18.434Z,34.65
2022-08-20T15:36:45.392Z,34.23
2022-08-20T15:39:12.236Z,33.83
2022-08-20T15:41:40.410Z,34.34
2022-08-20T15:44:07.174Z,34.56
2022-08-20T15:46:38.995Z,34.83
2022-08-20T15:49:11.178Z,35.18
2022-08-20T15:51:43.434Z,35.03
2022-08-20T15:54:16.347Z,35.70
2022-08-20T15:57:08.949Z,35.13
2022-08-20T15:59:59.635Z,35.57
2022-08-20T16:02:55.972Z,36.16
2022-08-20T16:05:33.330Z,35.54
2022-08-20T16:08:12.148Z,35.83
2022-08-20T16:10:48.734Z,36.09
2022-08-20T16:13:31.140Z,35.60
2022-08-20T16:16:01.927Z,34.69
2022-08-20T16:18:32.611Z,33.73
2022-08-20T16:21:03.572Z,33.70
2022-08-20T16:23:33.339Z,33.44
2022-08-20T16:26:13.049Z,34.14
2022-08-20T16:28:49.163Z,34.60
2022-08-20T16:31:22.130Z,34.79
2022-08-20T16:34:32.988Z,35.42
2022-08-20T16:37:03.448Z,35.29
2022-08-20T16:39:37.232Z,36.17
2022-08-20T16:42:08.234Z,36.19
2022-08-20T16:44:39.412Z,36.64
2022-08-20T16:47:15.002Z,36.52
2022-08-20T16:49:48.261Z,36.95
2022-08-20T16:52:14.812Z,37.42
2022-08-20T16:54:43.777Z,36.91
2022-08-20T16:57:17.029Z,37.28
2022-08-20T17:00:06.237Z,37.07
2022-08-20T17:02:32.916Z,37.57
2022-08-20T17:05:02.236Z,36.71
2022-08-20T17:07:43.305Z,37.38
2022-08-20T17:10:17.829Z,36.35
2022-08-20T17:12:44.800Z,36.41
2022-08-20T17:15:22.703Z,37.19
2022-08-20T17:17:49.467Z,36.75
2022-08-20T17:20:20.283Z,35.88
2022-08-20T17:22:50.270Z,36.33
2022-08-20T17:25:20.130Z,36.08
2022-08-20T17:27:47.419Z,36.11
2022-08-20T17:30:23.034Z,36.72
2022-08-20T17:32:58.327Z,36.87
2022-08-20T17:35:31.968Z,37.13
2022-08-20T17:38:00.583Z,37.41
2022-08-20T17:40:34.048Z,37.80
2022-08-20T17:43:03.505Z,37.86
2022-08-20T17:45:40.936Z,37.82
2022-08-20T17:48:13.748Z,38.21
2022-08-20T17:50:42.012Z,38.13
2022-08-20T17:53:22.535Z,38.15
2022-08-20T17:55:53.393Z,38.43
2022-08-20T17:58:26.790Z,38.97
2022-08-20T18:00:54.788Z,39.09
2022-08-20T18:03:23.644Z,39.50
2022-08-20T18:05:56.727Z,39.59
2022-08-20T18:08:31.032Z,39.79
2022-08-20T18:11:03.617Z,40.20
2022-08-20T18:14:06.397Z,40.55
2022-08-20T18:16:43.186Z,41.27
2022-08-20T18:19:14.220Z,41.06
2022-08-20T18:22:03.927Z,41.28
2022-08-20T18:24:45.246Z,41.92
2022-08-20T18:27:15.062Z,42.18
2022-08-20T18:29:44.377Z,42.61
2022-08-20T18:32:31.401Z,42.39
2022-08-20T18:35:11.168Z,43.32
2022-08-20T18:37:38.321Z,43.42
2022-08-20T18:40:10.327Z,44.14
2022-08-20T18:42:38.206Z,44.33
2022-08-20T18:45:06.882Z,44.81
2022-08-20T18:47:45.279Z,44.68
2022-08-20T18:50:26.482Z,45.57
2022-08-20T18:53:08.611Z,45.64
2022-08-20T18:55:38.048Z,45.70
2022-08-20T18:58:07.672Z,46.13
2022-08-20T19:00:38.122Z,46.21
2022-08-20T19:03:16.382Z,46.66
2022-08-20T19:06:09.715Z,46.16
2022-08-20T19:08:43.832Z,46.46
2022-08-20T19:11:39.244Z,46.76
2022-08-20T19:14:29.408Z,47.36
2022-08-20T19:16:59.872Z,46.43
2022-08-20T19:19:32.714Z,47.25
2022-08-20T19:22:00.866Z,46.72
2022-08-20T19:24:29.548Z,47.60
2022-08-20T19:26:58.981Z,47.67
2022-08-20T19:29:29.201Z,47.34
2022-08-20T19:32:00.111Z,47.33
2022-08-20T19:34:28.534Z,47.14
2022-08-20T19:36:59.108Z,47.35
2022-08-20T19:39:36.760Z,48.17
2022-08-20T19:42:13.463Z,48.06
2022-08-20T19:44:45.545Z,48.16
2022-08-20T19:47:20.057Z,48.40
2022-08-20T19:49:57.362Z,48.07
2022-08-20T19:52:43.036Z,47.58
2022-08-20T19:55:20.170Z,48.35
2022-08-20T19:57:56.058Z,48.77
2022-08-20T20:00:25.601Z,49.28
2022-08-20T20:02:52.842Z,49.37
2022-08-20T20:05:21.920Z,48.74
2022-08-20T20:07:53.364Z,48.14
2022-08-20T20:10:32.154Z,47.71
2022-08-20T20:13:07.251Z,47.39
2022-08-20T20:15:34.260Z,47.79
2022-08-20T20:18:01.030Z,48.27
2022-08-20T20:20:31.941Z,48.10
2022-08-20T20:23:05.896Z,48.08
2022-08-20T20:25:40.483Z,48.42
2022-08-20T20:28:12.857Z,49.28
2022-08-20T20:30:40.938Z,49.26
2022-08-20T20:33:17.467Z,49.17
2022-08-20T20:35:46.464Z,49.65
2022-08-20T20:38:23.652Z,50.24
2022-08-20T20:40:52.421Z,50.03
2022-08-20T20:43:25.354Z,50.24
2022-08-20T20:46:03.726Z,50.97
2022-08-20T20:48:40.101Z,50.54
2022-08-20T20:51:18.183Z,50.63
2022-08-20T20:53:54.282Z,50.93
2022-08-20T20:56:32.015Z,51.39
2022-08-20T20:59:05.320Z,51.04
2022-08-20T21:01:48.142Z,51.17
2022-08-20T21:04:17.608Z,51.37
2022-08-20T21:06:45.688Z,51.72
2022-08-20T21:09:12.539Z,52.06
2022-08-20T21:11:41.925Z,52.27
2022-08-20T21:14:08.714Z,52.27
2022-08-20T21:16:35.391Z,52.61
2022-08-20T21:19:04.696Z,52.62
2022-08-20T21:21:31.288Z,52.96
2022-08-20T21:23:59.269Z,52.80
2022-08-20T21:26:27.816Z,53.08
2022-08-20T21:28:54.847Z,53.64
2022-08-20T21:31:21.495Z,53.79
2022-08-20T21:33:48.069Z,53.73
2022-08-20T21:36:14.827Z,53.77
2022-08-20T21:38:41.378Z,54.31
2022-08-20T21:41:09.450Z,54.19
2022-08-20T21:43:36.197Z,54.68
2022-08-20T21:46:03.991Z,54.44
2022-08-20T21:48:32.264Z,54.83
2022-08-20T21:50:58.840Z,55.12
2022-08-20T21:53:25.421Z,55.31
2022-08-20T21:55:52.536Z,55.68
2022-08-20T21:58:21.000Z,55.23
2022-08-20T22:00:52.024Z,55.11
2022-08-20T22:03:20.091Z,55.43
2022-08-20T22:05:47.136Z,55.28
2022-08-20T22:08:13.955Z,55.13
2022-08-20T22:10:40.570Z,55.33
2022-08-20T22:13:07.314Z,55.55
2022-08-20T22:15:35.466Z,55.57
2022-08-20T22:18:02.041Z,56.07
2022-08-20T22:20:29.068Z,56.61
2022-08-20T22:22:55.967Z,56.71
2022-08-20T22:25:22.793Z,56.76
2022-08-20T22:27:49.704Z,56.67
2022-08-20T22:30:16.299Z,56.68
2022-08-20T22:33:01.536Z,56.33
2022-08-20T22:35:28.963Z,56.11
2022-08-20T22:37:55.541Z,55.76
2022-08-20T22:40:22.473Z,55.12
2022-08-20T22:42:49.221Z,54.52
2022-08-20T22:45:16.298Z,54.43
2022-08-20T22:47:44.722Z,53.94
2022-08-20T22:50:12.837Z,54.26
2022-08-20T22:52:40.383Z,54.09
2022-08-20T22:55:07.752Z,53.65
2022-08-20T22:57:37.022Z,53.62
2022-08-20T23:00:05.796Z,53.81
2022-08-20T23:02:32.532Z,53.71
2022-08-20T23:05:00.562Z,53.26
2022-08-20T23:07:27.839Z,52.88
2022-08-20T23:09:54.403Z,53.11
2022-08-20T23:12:21.287Z,53.37
2022-08-20T23:14:48.016Z,53.64
2022-08-20T23:17:16.855Z,52.87
2022-08-20T23:19:45.364Z,52.57
2022-08-20T23:22:15.199Z,52.58
2022-08-20T23:24:41.945Z,52.87
2022-08-20T23:27:11.824Z,52.97
2022-08-20T23:29:38.382Z,53.04
2022-08-20T23:32:05.484Z,53.32
2022-08-20T23:34:32.068Z,53.13
2022-08-20T23:37:00.998Z,53.21
2022-08-20T23:39:29.249Z,53.33
2022-08-20T23:41:56.302Z,53.65
2022-08-20T23:44:25.840Z,54.08
2022-08-20T23:46:54.783Z,53.97
2022-08-20T23:49:21.408Z,53.86
2022-08-20T23:51:48.213Z,54.16
2022-08-20T23:54:14.774Z,54.18
2022-08-20T23:56:43.079Z,54.08
2022-08-20T23:59:09.638Z,53.56
